Time;durP1;ratioP1;P1;durP2;ratioP2;P2;SDS_P1;SDS_P2;PMS_P1;PMS_P2;Temp;Humidity;BMP_temperature;BMP_pressure;BME280_temperature;BME280_humidity;BME280_pressure;Samples;Min_cycle;Max_cycle;Signal;HPM_P1;HPM_P2
2021/01/25 00:01:20;;;;;;;21.90;13.13;;;231.00;1894.40;;;;;;4938574;29;20098;-85
2021/01/25 00:03:47;;;;;;;16.58;8.20;;;231.10;1894.40;;;;;;4938546;29;20035;-81
2021/01/25 00:06:13;;;;;;;12.68;8.02;;;231.00;1920.00;;;;;;4938599;29;20457;-81
2021/01/25 00:08:38;;;;;;;12.88;9.48;;;231.00;1920.00;;;;;;4938507;29;20035;-81
2021/01/25 00:11:04;;;;;;;18.55;11.93;;;231.00;1920.00;;;;;;4938399;29;20396;-81
2021/01/25 00:13:30;;;;;;;21.73;12.43;;;230.90;1920.00;;;;;;4956952;28;20035;-80
2021/01/25 00:15:56;;;;;;;19.27;9.57;;;230.90;1945.60;;;;;;4957738;28;20089;-81
2021/01/25 00:18:21;;;;;;;13.40;8.68;;;230.90;1920.00;;;;;;4957381;28;20035;-82
2021/01/25 00:20:47;;;;;;;13.98;6.10;;;230.80;1945.60;;;;;;4957528;28;20378;-80
2021/01/25 00:23:13;;;;;;;10.65;6.00;;;230.80;1945.60;;;;;;4974686;28;20027;-87
2021/01/25 00:25:39;;;;;;;21.95;11.38;;;230.70;1971.20;;;;;;4957467;28;20038;-81
2021/01/25 00:28:04;;;;;;;24.45;12.15;;;230.70;1996.80;;;;;;4973649;28;20081;-82
2021/01/25 00:30:30;;;;;;;29.17;15.18;;;230.60;1996.80;;;;;;4957292;28;20038;-81
2021/01/25 00:32:56;;;;;;;12.27;6.32;;;230.70;1971.20;;;;;;4957802;28;20031;-81
2021/01/25 00:35:22;;;;;;;23.05;11.57;;;230.80;1971.20;;;;;;4959494;28;20543;-82
2021/01/25 00:37:49;;;;;;;56.90;30.00;;;230.80;1920.00;;;;;;4961539;28;20023;-82
2021/01/25 00:40:14;;;;;;;29.50;16.05;;;230.80;1945.60;;;;;;4961332;28;20043;-81
2021/01/25 00:42:40;;;;;;;72.25;35.65;;;230.90;1920.00;;;;;;4977637;28;20155;-82
2021/01/25 00:45:07;;;;;;;37.13;18.58;;;230.90;1945.60;;;;;;4961350;28;20061;-84
2021/01/25 00:47:33;;;;;;;56.88;28.08;;;230.90;1920.00;;;;;;4961092;28;20492;-81
2021/01/25 00:49:59;;;;;;;14.77;9.38;;;230.90;1920.00;;;;;;4961069;28;20078;-81
2021/01/25 00:52:25;;;;;;;16.65;9.98;;;230.90;1894.40;;;;;;4961329;28;20445;-82
2021/01/25 00:54:51;;;;;;;26.00;14.52;;;230.90;1920.00;;;;;;4961298;28;20051;-81
2021/01/25 00:57:16;;;;;;;25.08;14.25;;;230.90;1920.00;;;;;;4960844;28;20034;-83
2021/01/25 00:59:43;;;;;;;24.73;14.55;;;230.90;1920.00;;;;;;4977284;28;20400;-84
2021/01/25 01:02:09;;;;;;;31.73;17.80;;;230.90;1945.60;;;;;;4960743;28;20026;-82
2021/01/25 01:04:34;;;;;;;60.60;31.23;;;231.00;1920.00;;;;;;4960771;28;20030;-82
2021/01/25 01:07:00;;;;;;;46.30;26.00;;;231.10;1920.00;;;;;;4960883;28;20031;-81
2021/01/25 01:09:26;;;;;;;33.70;18.75;;;231.10;1920.00;;;;;;4960717;28;20106;-82
2021/01/25 01:11:51;;;;;;;38.20;19.70;;;231.10;1945.60;;;;;;4960913;28;20503;-82
2021/01/25 01:14:17;;;;;;;18.60;10.43;;;231.00;1920.00;;;;;;4960330;28;20123;-81
2021/01/25 01:16:43;;;;;;;12.90;5.38;;;230.80;1971.20;;;;;;4960499;28;20035;-81
2021/01/25 01:19:08;;;;;;;17.92;5.40;;;230.40;2048.00;;;;;;4960510;28;20433;-80
2021/01/25 01:21:34;;;;;;;8.25;3.83;;;205.60;2124.80;;;;;;4960548;28;20027;-80
2021/01/25 01:24:01;;;;;;;4.75;2.95;;;205.40;2124.80;;;;;;4960493;28;20469;-80
2021/01/25 01:26:27;;;;;;;12.52;2.80;;;205.20;2099.20;;;;;;4960355;28;20034;-81
2021/01/25 01:28:53;;;;;;;13.55;2.47;;;180.00;1971.20;;;;;;4960353;28;20023;-83
2021/01/25 01:31:19;;;;;;;10.75;3.67;;;179.70;1920.00;;;;;;4959544;28;20035;-79
2021/01/25 01:33:45;;;;;;;6.13;2.20;;;179.40;1945.60;;;;;;4960783;28;20080;-81
2021/01/25 01:36:11;;;;;;;5.28;2.72;;;179.20;1996.80;;;;;;4978755;28;20038;-80
2021/01/25 01:38:38;;;;;;;2.88;1.42;;;154.50;1996.80;;;;;;4961955;28;20119;-81
2021/01/25 01:41:04;;;;;;;2.13;1.23;;;154.40;1945.60;;;;;;4978237;28;20026;-81
2021/01/25 01:43:30;;;;;;;3.07;1.93;;;154.20;1971.20;;;;;;4959748;28;20035;-81
2021/01/25 01:45:56;;;;;;;5.37;3.13;;;154.20;1971.20;;;;;;4960034;28;20030;-82
2021/01/25 01:48:22;;;;;;;6.17;2.67;;;154.10;1996.80;;;;;;4960286;28;20027;-84
2021/01/25 01:50:48;;;;;;;5.88;2.80;;;154.30;1971.20;;;;;;4960208;28;20504;-81
2021/01/25 01:53:15;;;;;;;4.80;2.33;;;154.00;1996.80;;;;;;4960153;28;20082;-81
2021/01/25 01:55:42;;;;;;;5.37;2.33;;;154.00;2022.40;;;;;;4960060;28;20039;-81
2021/01/25 01:58:08;;;;;;;3.77;1.97;;;153.90;2022.40;;;;;;4960054;28;20023;-81
2021/01/25 02:00:34;;;;;;;5.28;2.15;;;154.00;2099.20;;;;;;4959756;28;20528;-81
2021/01/25 02:03:00;;;;;;;6.28;2.72;;;154.00;2099.20;;;;;;4960002;28;20062;-81
2021/01/25 02:05:26;;;;;;;5.70;2.90;;;154.00;2124.80;;;;;;4959558;28;20031;-84
2021/01/25 02:07:55;;;;;;;3.57;1.70;;;154.00;2124.80;;;;;;4959852;28;20031;-81
2021/01/25 02:10:22;;;;;;;2.83;1.80;;;154.00;2124.80;;;;;;4959868;28;20031;-81
2021/01/25 02:12:49;;;;;;;2.93;1.60;;;154.00;2099.20;;;;;;4959942;28;20093;-81
2021/01/25 02:15:18;;;;;;;4.37;1.93;;;154.00;2099.20;;;;;;4943512;29;20048;-83
2021/01/25 02:17:48;;;;;;;2.67;1.50;;;154.10;2048.00;;;;;;4940432;29;20396;-80
2021/01/25 02:20:27;;;;;;;3.27;1.67;;;153.70;1817.60;;;;;;4940505;29;20028;-80
2021/01/25 02:22:58;;;;;;;1.27;1.00;;;153.70;1868.80;;;;;;4940631;29;20118;-84
2021/01/25 02:25:46;;;;;;;2.50;1.60;;;128.90;1766.40;;;;;;4940527;29;20023;-81
2021/01/25 02:28:12;;;;;;;2.20;1.63;;;128.90;1843.20;;;;;;4957302;29;20035;-81
2021/01/25 02:30:38;;;;;;;3.80;1.43;;;128.80;1792.00;;;;;;4940268;29;20034;-80
2021/01/25 02:33:05;;;;;;;2.77;1.37;;;128.60;1715.20;;;;;;4940041;29;20097;-83
2021/01/25 02:35:32;;;;;;;2.40;1.23;;;128.60;1740.80;;;;;;4940118;29;20039;-81
2021/01/25 02:37:58;;;;;;;2.57;1.47;;;128.50;1740.80;;;;;;4940298;29;20020;-81
2021/01/25 02:40:25;;;;;;;3.57;2.07;;;128.50;1766.40;;;;;;4940168;29;20027;-81
2021/01/25 02:42:55;;;;;;;4.33;2.37;;;128.50;1817.60;;;;;;4940201;29;20023;-80
2021/01/25 02:45:23;;;;;;;2.00;1.50;;;128.40;1792.00;;;;;;4939719;29;20118;-80
2021/01/25 02:47:50;;;;;;;2.77;1.50;;;128.30;1766.40;;;;;;4939700;29;20031;-82
2021/01/25 02:50:16;;;;;;;1.47;1.13;;;128.30;1740.80;;;;;;4939825;29;20038;-81
2021/01/25 02:52:41;;;;;;;2.33;1.40;;;128.30;1740.80;;;;;;4939844;29;20035;-81
2021/01/25 02:55:08;;;;;;;2.30;0.80;;;128.30;1740.80;;;;;;4940010;29;20510;-84
2021/01/25 02:57:36;;;;;;;3.43;1.83;;;128.20;1740.80;;;;;;4938974;29;20090;-80
2021/01/25 03:00:03;;;;;;;4.23;1.50;;;128.20;1766.40;;;;;;4939174;29;20039;-85
2021/01/25 03:02:29;;;;;;;2.00;1.10;;;128.20;1740.80;;;;;;4939749;29;20102;-80
2021/01/25 03:04:57;;;;;;;2.10;1.30;;;128.10;1740.80;;;;;;4939705;29;20027;-81
2021/01/25 03:07:23;;;;;;;1.63;1.37;;;128.10;1766.40;;;;;;4939537;29;20090;-81
2021/01/25 03:09:49;;;;;;;2.27;1.37;;;128.10;1766.40;;;;;;4939653;29;20481;-81
2021/01/25 03:12:16;;;;;;;2.03;1.40;;;128.10;1740.80;;;;;;4956584;29;20371;-81
2021/01/25 03:14:43;;;;;;;1.90;1.37;;;128.10;1766.40;;;;;;4958569;28;20059;-81
2021/01/25 03:17:09;;;;;;;2.00;1.80;;;128.10;1740.80;;;;;;4974915;28;20041;-82
2021/01/25 03:19:35;;;;;;;4.50;1.50;;;128.10;1766.40;;;;;;4974483;28;20031;-80
2021/01/25 03:22:01;;;;;;;1.93;1.30;;;128.10;1766.40;;;;;;4974629;28;20026;-82
2021/01/25 03:24:26;;;;;;;3.03;1.70;;;128.00;1766.40;;;;;;4974752;28;20034;-83
2021/01/25 03:26:52;;;;;;;2.10;1.47;;;128.00;1792.00;;;;;;4974745;28;20045;-81
2021/01/25 03:29:17;;;;;;;4.70;2.50;;;128.00;1766.40;;;;;;4974768;28;20038;-81
2021/01/25 03:31:43;;;;;;;2.20;1.40;;;128.00;1766.40;;;;;;4975240;28;20035;-82
2021/01/25 03:34:09;;;;;;;2.27;1.57;;;128.10;1740.80;;;;;;4974248;28;20030;-81
2021/01/25 03:36:35;;;;;;;3.53;1.90;;;128.10;1766.40;;;;;;4975540;28;20043;-82
2021/01/25 03:39:02;;;;;;;3.90;2.17;;;128.10;1766.40;;;;;;4974179;28;20030;-82
2021/01/25 03:41:28;;;;;;;3.43;2.37;;;128.00;1792.00;;;;;;4973769;28;20465;-81
2021/01/25 03:43:54;;;;;;;4.63;2.50;;;128.00;1740.80;;;;;;4974385;28;20037;-81
2021/01/25 03:46:20;;;;;;;3.03;2.13;;;128.00;1792.00;;;;;;4975736;28;20058;-81
2021/01/25 03:48:46;;;;;;;3.20;1.90;;;103.30;1740.80;;;;;;4974121;28;20026;-80
2021/01/25 03:51:11;;;;;;;5.17;2.37;;;128.00;1766.40;;;;;;4974426;28;20031;-80
2021/01/25 03:53:38;;;;;;;5.17;2.73;;;128.00;1766.40;;;;;;4974284;28;20061;-82
2021/01/25 03:56:04;;;;;;;4.43;2.77;;;128.00;1792.00;;;;;;4974030;28;20408;-81
2021/01/25 03:58:29;;;;;;;3.07;2.40;;;103.30;1740.80;;;;;;4974160;28;20027;-81
2021/01/25 04:00:55;;;;;;;6.20;2.77;;;103.30;1715.20;;;;;;4973915;28;20038;-81
2021/01/25 04:03:21;;;;;;;6.07;3.47;;;103.30;1715.20;;;;;;4973942;28;20027;-81
2021/01/25 04:05:47;;;;;;;4.67;3.03;;;103.30;1766.40;;;;;;4973372;28;20085;-81
2021/01/25 04:08:13;;;;;;;5.07;2.60;;;103.30;1792.00;;;;;;4973748;28;20480;-81
2021/01/25 04:10:39;;;;;;;3.47;2.00;;;103.20;1740.80;;;;;;4973193;28;20031;-82
2021/01/25 04:13:05;;;;;;;5.73;2.80;;;103.20;1792.00;;;;;;4973695;28;20035;-80
2021/01/25 04:15:31;;;;;;;5.53;2.60;;;103.30;1766.40;;;;;;4973616;28;20130;-82
2021/01/25 04:17:56;;;;;;;10.03;3.87;;;103.30;1766.40;;;;;;4970183;28;20101;-81
2021/01/25 04:20:22;;;;;;;7.60;3.70;;;103.30;1792.00;;;;;;4954408;29;20063;-80
2021/01/25 04:22:48;;;;;;;6.47;2.90;;;103.20;1740.80;;;;;;4955240;29;20031;-81
2021/01/25 04:25:13;;;;;;;6.50;2.80;;;103.30;1766.40;;;;;;4955651;29;20030;-82
2021/01/25 04:27:39;;;;;;;8.07;3.80;;;103.30;1766.40;;;;;;4955255;29;20464;-82
2021/01/25 04:30:07;;;;;;;4.17;2.60;;;103.30;1740.80;;;;;;4954828;29;20027;-84
2021/01/25 04:32:35;;;;;;;5.77;3.30;;;128.00;1792.00;;;;;;4954336;29;20102;-83
2021/01/25 04:35:03;;;;;;;16.13;8.47;;;128.00;1792.00;;;;;;4954088;29;20477;-82
2021/01/25 04:37:28;;;;;;;13.87;7.77;;;128.10;1792.00;;;;;;4953779;29;20039;-83
2021/01/25 04:39:54;;;;;;;11.40;6.57;;;128.10;1817.60;;;;;;4954741;29;20143;-83
2021/01/25 04:42:20;;;;;;;12.37;6.80;;;128.10;1792.00;;;;;;4954283;29;20031;-82
2021/01/25 04:44:46;;;;;;;9.37;5.13;;;128.20;1792.00;;;;;;4954097;28;20083;-83
2021/01/25 04:47:12;;;;;;;9.20;4.47;;;128.20;1817.60;;;;;;4954341;29;20143;-81
2021/01/25 04:49:40;;;;;;;8.80;5.07;;;128.20;1817.60;;;;;;4955347;28;20030;-83
2021/01/25 04:52:07;;;;;;;12.47;6.27;;;128.10;1817.60;;;;;;4954005;29;20114;-82
2021/01/25 04:54:33;;;;;;;12.63;7.10;;;128.00;1843.20;;;;;;4954174;29;20023;-82
2021/01/25 04:57:01;;;;;;;16.33;7.13;;;128.20;1792.00;;;;;;4954086;29;20035;-82
2021/01/25 04:59:27;;;;;;;12.10;6.93;;;128.10;1766.40;;;;;;4953645;29;20028;-82
2021/01/25 05:01:53;;;;;;;8.47;5.53;;;128.20;1792.00;;;;;;4953655;29;20054;-82
2021/01/25 05:04:19;;;;;;;7.83;4.10;;;128.20;1766.40;;;;;;4954197;29;20470;-82
2021/01/25 05:06:44;;;;;;;10.80;6.27;;;128.10;1766.40;;;;;;4953882;29;20027;-83
2021/01/25 05:09:10;;;;;;;7.33;3.87;;;128.00;1792.00;;;;;;4954082;29;20050;-83
2021/01/25 05:11:36;;;;;;;15.20;8.33;;;128.00;1792.00;;;;;;4955043;29;20035;-81
2021/01/25 05:14:06;;;;;;;16.40;8.30;;;103.30;1792.00;;;;;;4956947;28;20086;-83
2021/01/25 05:16:33;;;;;;;9.40;5.90;;;103.00;1868.80;;;;;;4956822;28;20053;-82
2021/01/25 05:19:04;;;;;;;14.30;8.70;;;103.00;1843.20;;;;;;4974424;28;20042;-83
2021/01/25 05:21:37;;;;;;;14.50;8.67;;;102.90;1843.20;;;;;;4959355;28;20057;-83
2021/01/25 05:24:04;;;;;;;12.40;7.43;;;102.90;1843.20;;;;;;4960495;28;20065;-82
2021/01/25 05:26:30;;;;;;;8.20;5.07;;;103.00;1843.20;;;;;;4960505;28;20034;-82
2021/01/25 05:28:56;;;;;;;23.50;12.07;;;102.80;1843.20;;;;;;4976383;28;20027;-82
2021/01/25 05:31:23;;;;;;;14.63;5.90;;;102.80;1843.20;;;;;;4976850;28;20027;-83
2021/01/25 05:33:50;;;;;;;10.17;5.17;;;102.90;1843.20;;;;;;4960443;28;20073;-82
2021/01/25 05:36:21;;;;;;;15.17;7.57;;;102.70;1868.80;;;;;;4960364;28;20038;-82
2021/01/25 05:38:48;;;;;;;7.20;3.80;;;102.80;1868.80;;;;;;4960620;28;20026;-82
2021/01/25 05:41:16;;;;;;;5.60;3.20;;;102.70;1894.40;;;;;;4960245;28;20029;-83
2021/01/25 05:43:42;;;;;;;5.60;4.17;;;102.80;1868.80;;;;;;4960152;28;20046;-82
2021/01/25 05:46:09;;;;;;;6.20;3.70;;;102.90;1868.80;;;;;;4960460;28;20039;-82
2021/01/25 05:48:35;;;;;;;3.30;2.37;;;102.90;1868.80;;;;;;4977361;28;20027;-83
2021/01/25 05:51:17;;;;;;;5.57;2.70;;;102.80;1868.80;;;;;;4976230;28;20495;-82
2021/01/25 05:53:45;;;;;;;6.50;3.73;;;102.80;1868.80;;;;;;4977520;28;20027;-82
2021/01/25 05:56:12;;;;;;;4.70;3.40;;;102.80;1868.80;;;;;;4958922;28;20081;-82
2021/01/25 05:58:38;;;;;;;5.63;3.23;;;102.80;1868.80;;;;;;4960133;28;20030;-82
2021/01/25 06:01:05;;;;;;;9.63;4.10;;;102.80;1868.80;;;;;;4977320;28;20027;-82
2021/01/25 06:03:37;;;;;;;6.57;4.47;;;102.80;1868.80;;;;;;4959682;28;20035;-82
2021/01/25 06:06:12;;;;;;;5.97;3.20;;;102.90;1868.80;;;;;;4960208;28;20031;-81
2021/01/25 06:08:49;;;;;;;3.77;3.00;;;102.80;1843.20;;;;;;4977052;28;20102;-82
2021/01/25 06:11:21;;;;;;;6.40;3.20;;;102.80;1843.20;;;;;;4959962;28;20477;-81
2021/01/25 06:14:22;;;;;;;5.80;3.25;;;102.90;1843.20;;;;;;4960058;28;20050;-82
2021/01/25 06:16:51;;;;;;;11.10;7.33;;;102.90;1817.60;;;;;;4976948;28;20532;-82
2021/01/25 06:19:23;;;;;;;9.77;6.17;;;102.90;1843.20;;;;;;4975430;28;20031;-81
2021/01/25 06:21:49;;;;;;;8.87;4.90;;;103.00;1817.60;;;;;;4959413;28;20039;-83
2021/01/25 06:24:16;;;;;;;8.53;4.67;;;103.00;1817.60;;;;;;4976883;28;20038;-82
2021/01/25 06:26:47;;;;;;;11.73;6.73;;;103.00;1817.60;;;;;;4974963;28;20139;-82
2021/01/25 06:29:17;;;;;;;7.80;4.03;;;103.00;1817.60;;;;;;4976535;28;20037;-83
2021/01/25 06:31:43;;;;;;;7.97;4.57;;;103.00;1792.00;;;;;;4975252;28;20054;-82
2021/01/25 06:34:13;;;;;;;7.20;5.30;;;103.00;1817.60;;;;;;4974862;28;20110;-82
2021/01/25 06:36:41;;;;;;;8.40;5.30;;;103.00;1817.60;;;;;;4975606;28;20041;-82
2021/01/25 06:39:07;;;;;;;9.83;5.37;;;102.90;1817.60;;;;;;4975290;28;20031;-82
2021/01/25 06:41:43;;;;;;;11.27;7.30;;;103.10;1817.60;;;;;;4976437;28;20027;-81
2021/01/25 06:44:10;;;;;;;14.70;6.77;;;103.00;1792.00;;;;;;4972505;28;20425;-81
2021/01/25 06:46:38;;;;;;;6.57;5.63;;;103.00;1792.00;;;;;;4975470;28;20053;-82
2021/01/25 06:49:08;;;;;;;14.40;8.73;;;103.00;1792.00;;;;;;4975060;28;20031;-82
2021/01/25 06:51:43;;;;;;;8.40;5.60;;;103.00;1817.60;;;;;;4975224;28;20086;-82
2021/01/25 06:54:11;;;;;;;11.17;7.17;;;103.00;1792.00;;;;;;4974510;28;20030;-81
2021/01/25 06:56:44;;;;;;;11.33;7.37;;;103.10;1792.00;;;;;;4959775;28;20058;-81
2021/01/25 06:59:11;;;;;;;;;;;103.10;1792.00;;;;;;4942486;28;20437;-85
2021/01/25 07:01:40;;;;;;;15.97;10.47;;;103.10;1792.00;;;;;;4955839;28;19906;-81
2021/01/25 07:04:13;;;;;;;15.93;9.43;;;103.10;1792.00;;;;;;4954503;29;20106;-82
2021/01/25 07:06:39;;;;;;;17.90;11.10;;;103.10;1792.00;;;;;;4970683;28;20035;-82
2021/01/25 07:09:06;;;;;;;12.00;6.93;;;103.20;1792.00;;;;;;4964456;28;20043;-83
2021/01/25 07:11:34;;;;;;;16.70;9.13;;;103.20;1766.40;;;;;;4958396;28;20155;-81
2021/01/25 07:13:59;;;;;;;9.97;6.93;;;103.20;1766.40;;;;;;4953485;29;20130;-82
2021/01/25 07:16:27;;;;;;;12.70;8.77;;;103.30;1740.80;;;;;;4957800;29;20489;-82
2021/01/25 07:18:53;;;;;;;8.77;6.90;;;103.30;1740.80;;;;;;4940192;29;20087;-82
2021/01/25 07:21:20;;;;;;;25.77;14.83;;;103.30;1740.80;;;;;;4938071;29;20167;-83
2021/01/25 07:23:49;;;;;;;13.80;9.17;;;103.30;1740.80;;;;;;4949649;29;20474;-81
2021/01/25 07:26:17;;;;;;;17.30;10.53;;;103.30;1740.80;;;;;;4904250;29;20071;-82
2021/01/25 07:28:44;;;;;;;15.63;8.80;;;128.00;1740.80;;;;;;4920238;29;20118;-82
2021/01/25 07:31:10;;;;;;;17.27;10.20;;;128.10;1740.80;;;;;;4920323;29;20478;-83
2021/01/25 07:33:37;;;;;;;15.07;11.30;;;128.20;1715.20;;;;;;4920321;29;20032;-82
2021/01/25 07:36:04;;;;;;;27.80;14.47;;;128.40;1740.80;;;;;;4919984;29;20048;-85
2021/01/25 07:38:30;;;;;;;23.43;13.07;;;128.50;1740.80;;;;;;4920411;29;20032;-88
2021/01/25 07:40:57;;;;;;;24.00;13.23;;;128.50;1715.20;;;;;;4940724;29;20042;-82
2021/01/25 07:43:26;;;;;;;25.20;15.00;;;128.70;1817.60;;;;;;4931020;28;20494;-81
2021/01/25 07:45:54;;;;;;;17.03;9.87;;;153.90;1689.60;;;;;;4935408;29;20067;-81
2021/01/25 07:48:20;;;;;;;18.30;10.73;;;154.10;1689.60;;;;;;4919522;29;20083;-80
2021/01/25 07:50:53;;;;;;;32.90;17.90;;;154.30;1740.80;;;;;;4920358;29;20040;-84
2021/01/25 07:53:19;;;;;;;27.23;15.43;;;154.00;1638.40;;;;;;4951762;29;20027;-81
2021/01/25 07:55:45;;;;;;;31.63;16.60;;;154.20;1638.40;;;;;;4922815;29;20114;-80
2021/01/25 07:58:11;;;;;;;14.30;8.63;;;154.00;1612.80;;;;;;4937814;29;20375;-80
2021/01/25 08:00:40;;;;;;;17.23;10.80;;;153.90;1612.80;;;;;;4937850;29;20509;-80
2021/01/25 08:03:17;;;;;;;16.63;8.67;;;153.90;1638.40;;;;;;4937472;29;20034;-80
2021/01/25 08:05:48;;;;;;;10.47;7.67;;;153.80;1612.80;;;;;;4938141;29;20028;-80
2021/01/25 08:08:14;;;;;;;8.80;5.87;;;153.80;1612.80;;;;;;4937923;29;20486;-80
2021/01/25 08:10:40;;;;;;;12.50;7.60;;;153.70;1612.80;;;;;;4937123;29;20027;-85
2021/01/25 08:13:18;;;;;;;11.63;7.20;;;153.80;1612.80;;;;;;4936151;29;20062;-80
2021/01/25 08:16:26;;;;;;;15.20;8.40;;;153.80;1587.20;;;;;;4955498;28;20042;-80
2021/01/25 08:18:51;;;;;;;22.27;12.20;;;154.00;1638.40;;;;;;4948824;29;20035;-78
2021/01/25 08:21:22;;;;;;;13.33;8.97;;;154.10;1638.40;;;;;;4936536;29;20164;-80
2021/01/25 08:23:51;;;;;;;14.63;9.30;;;154.10;1612.80;;;;;;4936266;29;20046;-80
2021/01/25 08:26:23;;;;;;;12.53;6.93;;;154.20;1612.80;;;;;;4935220;29;20027;-85
2021/01/25 08:28:55;;;;;;;3.33;2.20;;;154.20;1612.80;;;;;;4936086;29;20051;-80
2021/01/25 08:31:32;;;;;;;10.02;5.65;;;154.20;1536.00;;;;;;4937273;29;20074;-79
2021/01/25 08:34:01;;;;;;;14.30;7.97;;;154.20;1587.20;;;;;;4936430;29;20027;-78
2021/01/25 08:36:35;;;;;;;10.37;6.17;;;154.50;1612.80;;;;;;4968217;28;20078;-80
2021/01/25 08:39:13;;;;;;;10.87;7.07;;;154.40;1587.20;;;;;;4953345;29;20059;-79
2021/01/25 08:41:47;;;;;;;4.53;2.80;;;179.20;1612.80;;;;;;4954004;29;20114;-80
2021/01/25 08:44:18;;;;;;;7.53;4.17;;;154.40;1587.20;;;;;;4953657;29;20462;-79
2021/01/25 08:46:44;;;;;;;8.13;2.97;;;179.40;1536.00;;;;;;4952957;29;20035;-80
2021/01/25 08:49:31;;;;;;;5.43;3.20;;;179.40;1561.60;;;;;;4953478;29;20035;-79
2021/01/25 08:52:00;;;;;;;8.23;4.17;;;179.50;1561.60;;;;;;4938016;28;20030;-78
2021/01/25 08:54:30;;;;;;;7.13;3.83;;;179.70;1561.60;;;;;;4949583;29;20082;-78
2021/01/25 08:56:56;;;;;;;9.90;6.87;;;179.90;1561.60;;;;;;4956203;28;20067;-81
2021/01/25 08:59:48;;;;;;;4.77;3.93;;;179.90;1536.00;;;;;;4957573;29;20051;-79
2021/01/25 09:02:23;;;;;;;6.97;4.73;;;179.90;1510.40;;;;;;4955254;29;20085;-82
2021/01/25 09:04:53;;;;;;;5.60;3.30;;;179.90;1561.60;;;;;;4958483;29;20027;-81
2021/01/25 09:07:23;;;;;;;8.57;4.47;;;180.10;1484.80;;;;;;4959269;28;20035;-81
2021/01/25 09:09:50;;;;;;;5.67;3.57;;;204.80;1510.40;;;;;;4969108;28;20489;-82
2021/01/25 09:12:17;;;;;;;9.73;4.27;;;204.80;1459.20;;;;;;4949306;29;20038;-81
2021/01/25 09:14:43;;;;;;;4.77;3.33;;;204.90;1484.80;;;;;;4946093;29;20111;-85
2021/01/25 09:17:10;;;;;;;7.20;3.47;;;205.10;1459.20;;;;;;4938532;29;20490;-85
2021/01/25 09:19:37;;;;;;;9.27;6.07;;;205.10;1408.00;;;;;;4938648;29;20038;-89
2021/01/25 09:22:04;;;;;;;4.73;3.17;;;205.60;1433.60;;;;;;4939223;29;20035;-85
2021/01/25 09:24:30;;;;;;;42.53;22.47;;;205.50;1382.40;;;;;;4938685;29;20039;-85
2021/01/25 09:26:55;;;;;;;10.53;6.23;;;205.50;1408.00;;;;;;4952140;29;20397;-86
2021/01/25 09:29:21;;;;;;;5.97;3.70;;;205.70;1433.60;;;;;;4938217;29;20034;-86
2021/01/25 09:31:47;;;;;;;17.30;9.63;;;205.70;1433.60;;;;;;4938014;29;20199;-85
2021/01/25 09:34:12;;;;;;;15.57;10.40;;;230.50;1382.40;;;;;;4941628;29;20026;-84
2021/01/25 09:36:38;;;;;;;32.42;16.67;;;205.60;1305.60;;;;;;4958664;29;20046;-86
2021/01/25 09:39:05;;;;;;;18.47;10.53;;;205.70;1280.00;;;;;;4940947;29;20070;-86
2021/01/25 09:41:31;;;;;;;9.90;5.18;;;230.60;1280.00;;;;;;4941389;29;20051;-85
2021/01/25 09:43:57;;;;;;;7.95;5.30;;;230.70;1305.60;;;;;;4941551;29;20027;-86
2021/01/25 09:46:23;;;;;;;6.30;3.72;;;231.00;1305.60;;;;;;4941042;29;20036;-88
2021/01/25 09:48:48;;;;;;;9.32;5.53;;;230.80;1356.80;;;;;;4941757;29;20083;-85
2021/01/25 09:51:15;;;;;;;50.97;29.95;;;231.20;1331.20;;;;;;4957630;29;20086;-86
2021/01/25 09:53:41;;;;;;;35.22;19.48;;;230.90;1203.20;;;;;;4941197;29;20474;-85
2021/01/25 09:56:07;;;;;;;10.50;6.43;;;230.80;1254.40;;;;;;4941420;29;20039;-86
2021/01/25 09:58:34;;;;;;;9.63;6.57;;;230.90;1280.00;;;;;;4941447;29;20026;-86
2021/01/25 10:01:00;;;;;;;32.70;17.73;;;231.20;1228.80;;;;;;4941147;29;20034;-84
2021/01/25 10:03:26;;;;;;;31.60;15.95;;;230.60;1254.40;;;;;;4941108;29;20024;-85
2021/01/25 10:05:52;;;;;;;21.73;15.07;;;205.60;1254.40;;;;;;4941252;29;20034;-86
2021/01/25 10:08:17;;;;;;;8.93;6.68;;;230.40;1228.80;;;;;;4939880;29;20023;-85
2021/01/25 10:10:43;;;;;;;12.30;8.07;;;230.70;1228.80;;;;;;4940839;29;20035;-86
2021/01/25 10:13:09;;;;;;;12.50;5.83;;;230.70;1228.80;;;;;;4940403;29;20557;-88
2021/01/25 10:15:34;;;;;;;8.75;4.78;;;230.40;1228.80;;;;;;4940985;29;20058;-86
2021/01/25 10:18:02;;;;;;;11.50;7.85;;;230.80;1203.20;;;;;;4941269;29;20023;-86
2021/01/25 10:20:28;;;;;;;10.38;7.45;;;230.80;1228.80;;;;;;4941256;29;20055;-86
2021/01/25 10:22:54;;;;;;;7.47;5.75;;;230.40;1203.20;;;;;;4940864;29;20481;-86
2021/01/25 10:25:19;;;;;;;9.50;6.05;;;230.70;1177.60;;;;;;4940771;29;20031;-87
2021/01/25 10:27:45;;;;;;;9.02;4.63;;;231.00;1203.20;;;;;;4940450;29;20042;-85
2021/01/25 10:30:13;;;;;;;4.25;2.95;;;231.20;1177.60;;;;;;4940566;29;20031;-85
2021/01/25 10:32:39;;;;;;;4.10;2.72;;;231.10;1126.40;;;;;;4940353;29;20023;-85
2021/01/25 10:35:06;;;;;;;20.35;12.27;;;231.00;1152.00;;;;;;4940322;29;20027;-85
2021/01/25 10:37:32;;;;;;;23.48;14.20;;;231.30;1152.00;;;;;;4940377;29;20031;-89
2021/01/25 10:39:58;;;;;;;12.68;7.45;;;231.30;1177.60;;;;;;4940046;29;20086;-86
2021/01/25 10:42:24;;;;;;;24.30;15.57;;;256.10;1152.00;;;;;;4940102;29;20135;-85
2021/01/25 10:44:49;;;;;;;19.00;10.55;;;231.10;1152.00;;;;;;4940296;29;20486;-85
2021/01/25 10:47:18;;;;;;;16.17;9.23;;;231.00;1152.00;;;;;;4939704;29;20070;-85
2021/01/25 10:49:48;;;;;;;8.60;4.55;;;231.00;1177.60;;;;;;4955758;29;20126;-84
2021/01/25 10:52:15;;;;;;;7.72;4.70;;;231.20;1126.40;;;;;;4940139;29;20027;-84
2021/01/25 10:54:41;;;;;;;7.47;4.35;;;231.30;1126.40;;;;;;4939460;29;20035;-85
2021/01/25 10:57:07;;;;;;;5.13;2.97;;;256.00;1126.40;;;;;;4939982;29;20045;-86
2021/01/25 10:59:34;;;;;;;9.73;5.25;;;231.10;1126.40;;;;;;4940124;29;20027;-86
2021/01/25 11:02:00;;;;;;;9.45;5.00;;;231.20;1126.40;;;;;;4939704;29;20470;-87
2021/01/25 11:04:25;;;;;;;12.02;7.80;;;256.00;1152.00;;;;;;4939719;29;20042;-86
2021/01/25 11:06:51;;;;;;;10.63;6.90;;;256.00;1126.40;;;;;;4940283;29;20081;-86
2021/01/25 11:09:17;;;;;;;9.02;4.90;;;256.00;1100.80;;;;;;4940274;29;20054;-86
2021/01/25 11:11:43;;;;;;;8.85;6.00;;;256.00;1126.40;;;;;;4940085;29;20031;-87
2021/01/25 11:14:09;;;;;;;21.55;10.10;;;256.00;1126.40;;;;;;4946352;28;20400;-87
2021/01/25 11:16:35;;;;;;;6.30;5.03;;;231.30;1126.40;;;;;;4958895;28;20039;-87
2021/01/25 11:19:00;;;;;;;28.15;19.02;;;256.10;1100.80;;;;;;4958860;28;20523;-87
2021/01/25 11:21:26;;;;;;;7.00;4.28;;;256.30;1075.20;;;;;;4958900;28;20031;-87
2021/01/25 11:23:52;;;;;;;5.95;4.43;;;256.70;1075.20;;;;;;4959278;28;20050;-88
2021/01/25 11:26:18;;;;;;;11.13;6.72;;;256.30;1075.20;;;;;;4959537;28;20547;-89
2021/01/25 11:28:45;;;;;;;7.93;4.70;;;256.90;1100.80;;;;;;4950993;28;20442;-87
2021/01/25 11:31:12;;;;;;;16.50;9.00;;;281.90;1100.80;;;;;;4940405;29;20136;-87
2021/01/25 11:33:38;;;;;;;44.28;26.52;;;256.70;1049.60;;;;;;4938431;29;20023;-86
2021/01/25 11:36:04;;;;;;;10.40;3.97;;;256.10;1100.80;;;;;;4954593;29;20046;-87
2021/01/25 11:38:31;;;;;;;30.58;17.58;;;256.20;1075.20;;;;;;4938625;29;20153;-86
2021/01/25 11:40:57;;;;;;;16.05;8.57;;;256.10;1100.80;;;;;;4955157;29;20031;-87
2021/01/25 11:43:23;;;;;;;8.90;5.63;;;256.10;1075.20;;;;;;4938167;28;20066;-86
2021/01/25 11:45:50;;;;;;;12.38;6.22;;;256.30;1075.20;;;;;;4953152;29;20062;-89
2021/01/25 11:48:20;;;;;;;21.40;9.45;;;256.00;1075.20;;;;;;4936290;29;20023;-86
2021/01/25 11:50:47;;;;;;;12.23;7.45;;;256.00;1100.80;;;;;;4937430;29;20039;-85
2021/01/25 11:53:13;;;;;;;8.02;4.75;;;256.00;1075.20;;;;;;4937175;29;20059;-86
2021/01/25 11:55:41;;;;;;;10.18;6.72;;;231.30;1075.20;;;;;;4936548;29;20053;-87
2021/01/25 11:58:07;;;;;;;20.70;12.10;;;256.00;1126.40;;;;;;4952963;29;20020;-88
2021/01/25 12:00:33;;;;;;;3.13;2.08;;;256.00;1100.80;;;;;;4942524;28;20035;-89
2021/01/25 12:02:58;;;;;;;11.05;5.55;;;256.00;1075.20;;;;;;4937696;29;20046;-89
2021/01/25 12:05:24;;;;;;;10.48;5.47;;;256.30;1075.20;;;;;;4944083;29;20046;-89
2021/01/25 12:07:50;;;;;;;8.00;4.40;;;256.20;1075.20;;;;;;4954207;29;20027;-88
2021/01/25 12:10:15;;;;;;;5.57;2.67;;;256.20;1075.20;;;;;;4956245;28;20093;-86
2021/01/25 12:12:41;;;;;;;4.07;2.40;;;256.10;1075.20;;;;;;4957229;28;20034;-87